PWSweather.com
Personal Weather Stations
Station Observations

YeovilGB

Lat: 50.949, Lon: -2.627

Elevation: 70

Station Type: Vantage Pro

http://www.yeovil-weather.me.uk/

High Low Average
Temperature 54.2°F12.3°C 47.0°F8.3°C 49.8°F9.9°C
Dew Point 49.8°F9.9°C 45.1°F7.3°C 47.0°F8.3°C
Winds 6.9 mph 11.1 kmh Calm Calm 2.0 mph NW3.2 kmh NW
Wind Gusts 12.7 mph20.4 kmh -- 5.0 mph8.0 kmh
Humidity 96% 84% 90%
Pressure 29.75 in1007.5 mb 29.16 in987.5 mb -
Precipitation 0.02 in0.5 mm - -
Hour Temp Dew Point Humidity Winds Wind Gusts Pressure Precip Precip Rate Daily Precip Total
12:00 AM 47.9°F8.8°C 46.8°F8.2°C 96% 1.2 mph N1.9 kmh N 8.1 mph13.0 kmh 29.16 in987.5 mb - 0.00 in0.0 mm 0.00 in0.0 mm
12:10 AM 47.8°F8.8°C 46.4°F8.0°C 95% 3.5 mph N5.6 kmh N 6.9 mph11.1 kmh 29.17 in987.8 mb - 0.00 in0.0 mm 0.00 in0.0 mm
12:20 AM 47.7°F8.7°C 46.3°F7.9°C 95% 4.6 mph N7.4 kmh N 9.2 mph14.8 kmh 29.18 in988.1 mb - 0.00 in0.0 mm 0.00 in0.0 mm
12:30 AM 47.6°F8.7°C 46.2°F7.9°C 95% 1.2 mph N1.9 kmh N 5.8 mph9.3 kmh 29.18 in988.1 mb - 0.00 in0.0 mm 0.00 in0.0 mm
12:40 AM 47.7°F8.7°C 46.6°F8.1°C 96% 1.2 mph N1.9 kmh N 5.8 mph9.3 kmh 29.19 in988.5 mb - 0.00 in0.0 mm 0.00 in0.0 mm
12:50 AM 47.9°F8.8°C 46.8°F8.2°C 96% 3.5 mph N5.6 kmh N 8.1 mph13.0 kmh 29.19 in988.5 mb - 0.00 in0.0 mm 0.00 in0.0 mm
01:00 AM 47.9°F8.8°C 46.8°F8.2°C 96% 2.3 mph N3.7 kmh N 5.8 mph9.3 kmh 29.20 in988.8 mb - 0.00 in0.0 mm 0.00 in0.0 mm
01:10 AM 47.9°F8.8°C 46.5°F8.1°C 95% 2.3 mph N3.7 kmh N 6.9 mph11.1 kmh 29.20 in988.8 mb - 0.00 in0.0 mm 0.00 in0.0 mm
01:20 AM 47.9°F8.8°C 46.5°F8.1°C 95% 4.6 mph N7.4 kmh N 6.9 mph11.1 kmh 29.21 in989.2 mb - 0.01 in0.3 mm 0.01 in0.3 mm
01:30 AM 47.8°F8.8°C 46.5°F8.1°C 95% 5.8 mph N9.3 kmh N 10.4 mph16.7 kmh 29.21 in989.2 mb - 0.00 in0.0 mm 0.01 in0.3 mm
01:40 AM 47.9°F8.8°C 46.5°F8.1°C 95% Calm Calm 4.6 mph7.4 kmh 29.21 in989.2 mb - 0.00 in0.0 mm 0.01 in0.3 mm
01:50 AM 48.0°F8.9°C 46.6°F8.1°C 95% Calm Calm 4.6 mph7.4 kmh 29.22 in989.5 mb - 0.00 in0.0 mm 0.01 in0.3 mm
02:00 AM 48.0°F8.9°C 46.7°F8.2°C 95% 2.3 mph N3.7 kmh N 6.9 mph11.1 kmh 29.23 in989.8 mb - 0.00 in0.0 mm 0.01 in0.3 mm
02:10 AM 48.1°F8.9°C 46.7°F8.2°C 95% Calm Calm 4.6 mph7.4 kmh 29.23 in989.8 mb - 0.00 in0.0 mm 0.01 in0.3 mm
02:20 AM 48.2°F9.0°C 46.8°F8.2°C 95% 2.3 mph N3.7 kmh N -- 29.23 in989.8 mb - 0.00 in0.0 mm 0.01 in0.3 mm
02:30 AM 48.3°F9.1°C 46.9°F8.3°C 95% Calm Calm -- 29.23 in989.8 mb - 0.00 in0.0 mm 0.01 in0.3 mm
02:40 AM 48.3°F9.1°C 46.9°F8.3°C 95% 2.3 mph NNW3.7 kmh NNW 4.6 mph7.4 kmh 29.24 in990.2 mb - 0.00 in0.0 mm 0.01 in0.3 mm
02:50 AM 48.3°F9.1°C 46.9°F8.3°C 95% 3.5 mph N5.6 kmh N 11.5 mph18.5 kmh 29.25 in990.5 mb - 0.00 in0.0 mm 0.01 in0.3 mm
03:00 AM 48.2°F9.0°C 46.9°F8.3°C 95% 3.5 mph NNE5.6 kmh NNE 10.4 mph16.7 kmh 29.25 in990.5 mb - 0.00 in0.0 mm 0.01 in0.3 mm
03:10 AM 48.2°F9.0°C 46.8°F8.2°C 95% 6.9 mph N11.1 kmh N 11.5 mph18.5 kmh 29.25 in990.5 mb - 0.00 in0.0 mm 0.01 in0.3 mm
03:20 AM 48.1°F8.9°C 46.5°F8.1°C 94% 2.3 mph N3.7 kmh N 8.1 mph13.0 kmh 29.26 in990.9 mb - 0.00 in0.0 mm 0.01 in0.3 mm
03:30 AM 48.1°F8.9°C 46.4°F8.0°C 94% 3.5 mph N5.6 kmh N 10.4 mph16.7 kmh 29.27 in991.2 mb - 0.00 in0.0 mm 0.01 in0.3 mm
03:40 AM 48.0°F8.9°C 46.1°F7.8°C 93% 3.5 mph N5.6 kmh N 8.1 mph13.0 kmh 29.27 in991.2 mb - 0.00 in0.0 mm 0.01 in0.3 mm
03:50 AM 47.9°F8.8°C 46.0°F7.8°C 93% 4.6 mph N7.4 kmh N 9.2 mph14.8 kmh 29.28 in991.5 mb - 0.00 in0.0 mm 0.01 in0.3 mm
04:00 AM 47.9°F8.8°C 46.0°F7.8°C 93% 1.2 mph NNW1.9 kmh NNW 4.6 mph7.4 kmh 29.29 in991.9 mb - 0.00 in0.0 mm 0.01 in0.3 mm
04:10 AM 47.8°F8.8°C 45.9°F7.7°C 93% 1.2 mph NNW1.9 kmh NNW 2.3 mph3.7 kmh 29.29 in991.9 mb - 0.00 in0.0 mm 0.01 in0.3 mm
04:20 AM 47.8°F8.8°C 45.8°F7.7°C 93% 2.3 mph NNW3.7 kmh NNW 3.5 mph5.6 kmh 29.30 in992.2 mb - 0.00 in0.0 mm 0.01 in0.3 mm
04:30 AM 47.6°F8.7°C 45.7°F7.6°C 93% 1.2 mph NNW1.9 kmh NNW 3.5 mph5.6 kmh 29.30 in992.2 mb - 0.00 in0.0 mm 0.01 in0.3 mm
04:40 AM 47.5°F8.6°C 45.6°F7.6°C 93% Calm Calm 1.2 mph1.9 kmh 29.31 in992.6 mb - 0.00 in0.0 mm 0.01 in0.3 mm
04:50 AM 47.4°F8.6°C 45.5°F7.5°C 93% 1.2 mph NNW1.9 kmh NNW 5.8 mph9.3 kmh 29.32 in992.9 mb - 0.00 in0.0 mm 0.01 in0.3 mm
05:00 AM 47.2°F8.4°C 45.3°F7.4°C 93% 2.3 mph NNW3.7 kmh NNW 3.5 mph5.6 kmh 29.32 in992.9 mb - 0.00 in0.0 mm 0.01 in0.3 mm
05:10 AM 47.2°F8.4°C 45.3°F7.4°C 93% 2.3 mph NNW3.7 kmh NNW 6.9 mph11.1 kmh 29.33 in993.2 mb - 0.00 in0.0 mm 0.01 in0.3 mm
05:20 AM 47.2°F8.4°C 45.3°F7.4°C 93% 2.3 mph NW3.7 kmh NW 5.8 mph9.3 kmh 29.33 in993.2 mb - 0.00 in0.0 mm 0.01 in0.3 mm
05:30 AM 47.1°F8.4°C 45.2°F7.3°C 93% Calm Calm 5.8 mph9.3 kmh 29.34 in993.6 mb - 0.00 in0.0 mm 0.01 in0.3 mm
05:40 AM 47.1°F8.4°C 45.2°F7.3°C 93% 1.2 mph NNW1.9 kmh NNW 4.6 mph7.4 kmh 29.35 in993.9 mb - 0.00 in0.0 mm 0.01 in0.3 mm
05:50 AM 47.0°F8.3°C 45.1°F7.3°C 93% 1.2 mph NNW1.9 kmh NNW 3.5 mph5.6 kmh 29.35 in993.9 mb - 0.00 in0.0 mm 0.01 in0.3 mm
06:00 AM 47.1°F8.4°C 45.5°F7.5°C 94% 2.3 mph NNW3.7 kmh NNW 4.6 mph7.4 kmh 29.36 in994.2 mb - 0.00 in0.0 mm 0.01 in0.3 mm
06:10 AM 47.2°F8.4°C 45.6°F7.6°C 94% 1.2 mph NNW1.9 kmh NNW 6.9 mph11.1 kmh 29.36 in994.2 mb - 0.00 in0.0 mm 0.01 in0.3 mm
06:20 AM 47.3°F8.5°C 45.6°F7.6°C 94% Calm Calm 4.6 mph7.4 kmh 29.37 in994.6 mb - 0.00 in0.0 mm 0.01 in0.3 mm
06:30 AM 47.3°F8.5°C 45.7°F7.6°C 94% 1.2 mph NNW1.9 kmh NNW 6.9 mph11.1 kmh 29.37 in994.6 mb - 0.00 in0.0 mm 0.01 in0.3 mm
06:40 AM 47.3°F8.5°C 45.4°F7.4°C 93% Calm Calm 3.5 mph5.6 kmh 29.38 in994.9 mb - 0.00 in0.0 mm 0.01 in0.3 mm
06:50 AM 47.4°F8.6°C 45.8°F7.7°C 94% Calm Calm -- 29.39 in995.3 mb - 0.00 in0.0 mm 0.01 in0.3 mm
07:00 AM 47.6°F8.7°C 46.0°F7.8°C 94% Calm Calm -- 29.39 in995.3 mb - 0.00 in0.0 mm 0.01 in0.3 mm
07:10 AM 47.6°F8.7°C 46.0°F7.8°C 94% 2.3 mph N3.7 kmh N 4.6 mph7.4 kmh 29.40 in995.6 mb - 0.00 in0.0 mm 0.01 in0.3 mm
07:20 AM 47.7°F8.7°C 46.1°F7.8°C 94% 1.2 mph N1.9 kmh N 6.9 mph11.1 kmh 29.40 in995.6 mb - 0.00 in0.0 mm 0.01 in0.3 mm
07:30 AM 47.8°F8.8°C 46.2°F7.9°C 94% 2.3 mph NW3.7 kmh NW 4.6 mph7.4 kmh 29.41 in995.9 mb - 0.00 in0.0 mm 0.01 in0.3 mm
07:40 AM 47.9°F8.8°C 46.0°F7.8°C 93% Calm Calm -- 29.42 in996.3 mb - 0.00 in0.0 mm 0.01 in0.3 mm
07:50 AM 48.0°F8.9°C 46.0°F7.8°C 93% Calm Calm -- 29.43 in996.6 mb - 0.00 in0.0 mm 0.01 in0.3 mm
08:00 AM 48.1°F8.9°C 46.1°F7.8°C 93% Calm Calm -- 29.43 in996.6 mb - 0.00 in0.0 mm 0.01 in0.3 mm
08:10 AM 48.2°F9.0°C 46.3°F7.9°C 93% Calm Calm 6.9 mph11.1 kmh 29.44 in997.0 mb - 0.00 in0.0 mm 0.01 in0.3 mm
08:20 AM 48.3°F9.1°C 46.7°F8.2°C 94% Calm Calm 5.8 mph9.3 kmh 29.44 in997.0 mb - 0.00 in0.0 mm 0.01 in0.3 mm
08:30 AM 48.5°F9.2°C 46.9°F8.3°C 94% Calm Calm -- 29.45 in997.3 mb - 0.01 in0.3 mm 0.02 in0.5 mm
08:40 AM 48.7°F9.3°C 46.8°F8.2°C 93% Calm Calm -- 29.45 in997.3 mb - 0.00 in0.0 mm 0.02 in0.5 mm
08:50 AM 48.8°F9.3°C 46.9°F8.3°C 93% 4.6 mph NW7.4 kmh NW 5.8 mph9.3 kmh 29.46 in997.6 mb - 0.00 in0.0 mm 0.02 in0.5 mm
09:00 AM 48.9°F9.4°C 47.0°F8.3°C 93% Calm Calm -- 29.46 in997.6 mb - 0.00 in0.0 mm 0.02 in0.5 mm
09:10 AM 49.0°F9.4°C 47.1°F8.4°C 93% Calm Calm -- 29.47 in998.0 mb - 0.00 in0.0 mm 0.02 in0.5 mm
09:20 AM 49.2°F9.6°C 47.2°F8.4°C 93% Calm Calm -- 29.47 in998.0 mb - 0.00 in0.0 mm 0.02 in0.5 mm
09:30 AM 49.3°F9.6°C 47.3°F8.5°C 93% Calm Calm -- 29.48 in998.3 mb - 0.00 in0.0 mm 0.02 in0.5 mm
09:40 AM 49.5°F9.7°C 47.5°F8.6°C 93% 3.5 mph NW5.6 kmh NW 6.9 mph11.1 kmh 29.48 in998.3 mb - 0.00 in0.0 mm 0.02 in0.5 mm
09:50 AM 49.9°F9.9°C 47.9°F8.8°C 93% 1.2 mph NW1.9 kmh NW 8.1 mph13.0 kmh 29.48 in998.3 mb - 0.00 in0.0 mm 0.02 in0.5 mm
10:00 AM 50.3°F10.2°C 48.1°F8.9°C 92% 2.3 mph NW3.7 kmh NW 6.9 mph11.1 kmh 29.48 in998.3 mb - 0.00 in0.0 mm 0.02 in0.5 mm
10:10 AM 50.5°F10.3°C 48.0°F8.9°C 91% 2.3 mph NNW3.7 kmh NNW 2.3 mph3.7 kmh 29.49 in998.6 mb - 0.00 in0.0 mm 0.02 in0.5 mm
10:20 AM 50.7°F10.4°C 47.9°F8.8°C 90% 4.6 mph NNW7.4 kmh NNW 10.4 mph16.7 kmh 29.49 in998.6 mb - 0.00 in0.0 mm 0.02 in0.5 mm
10:30 AM 51.5°F10.8°C 48.7°F9.3°C 90% 4.6 mph NNW7.4 kmh NNW 11.5 mph18.5 kmh 29.50 in999.0 mb - 0.00 in0.0 mm 0.02 in0.5 mm
10:40 AM 51.7°F10.9°C 48.3°F9.1°C 88% 3.5 mph NNW5.6 kmh NNW 10.4 mph16.7 kmh 29.50 in999.0 mb - 0.00 in0.0 mm 0.02 in0.5 mm
10:50 AM 51.6°F10.9°C 48.2°F9.0°C 88% 2.3 mph NW3.7 kmh NW 6.9 mph11.1 kmh 29.51 in999.3 mb - 0.00 in0.0 mm 0.02 in0.5 mm
11:00 AM 51.8°F11.0°C 48.6°F9.2°C 89% 4.6 mph NW7.4 kmh NW 9.2 mph14.8 kmh 29.51 in999.3 mb - 0.00 in0.0 mm 0.02 in0.5 mm
11:10 AM 51.9°F11.1°C 48.2°F9.0°C 87% 5.8 mph NNW9.3 kmh NNW 11.5 mph18.5 kmh 29.51 in999.3 mb - 0.00 in0.0 mm 0.02 in0.5 mm
11:20 AM 52.0°F11.1°C 47.9°F8.8°C 86% 5.8 mph NNW9.3 kmh NNW 8.1 mph13.0 kmh 29.52 in999.7 mb - 0.00 in0.0 mm 0.02 in0.5 mm
11:30 AM 52.0°F11.1°C 47.9°F8.8°C 86% 5.8 mph N9.3 kmh N 11.5 mph18.5 kmh 29.52 in999.7 mb - 0.00 in0.0 mm 0.02 in0.5 mm
11:40 AM 52.2°F11.2°C 48.1°F8.9°C 86% 3.5 mph NW5.6 kmh NW 10.4 mph16.7 kmh 29.52 in999.7 mb - 0.00 in0.0 mm 0.02 in0.5 mm
11:50 AM 52.2°F11.2°C 48.1°F8.9°C 86% 2.3 mph N3.7 kmh N 11.5 mph18.5 kmh 29.52 in999.7 mb - 0.00 in0.0 mm 0.02 in0.5 mm
12:00 PM 52.3°F11.3°C 48.5°F9.2°C 87% 1.2 mph NW1.9 kmh NW 3.5 mph5.6 kmh 29.52 in999.7 mb - 0.00 in0.0 mm 0.02 in0.5 mm
12:10 PM 52.5°F11.4°C 48.7°F9.3°C 87% Calm Calm -- 29.52 in999.7 mb - 0.00 in0.0 mm 0.02 in0.5 mm
12:20 PM 52.8°F11.6°C 49.0°F9.4°C 87% 1.2 mph NW1.9 kmh NW 5.8 mph9.3 kmh 29.53 in1000.0 mb - 0.00 in0.0 mm 0.02 in0.5 mm
12:30 PM 53.0°F11.7°C 49.2°F9.6°C 87% 4.6 mph NW7.4 kmh NW 10.4 mph16.7 kmh 29.53 in1000.0 mb - 0.00 in0.0 mm 0.02 in0.5 mm
12:40 PM 53.2°F11.8°C 49.5°F9.7°C 87% 4.6 mph NNW7.4 kmh NNW 5.8 mph9.3 kmh 29.53 in1000.0 mb - 0.00 in0.0 mm 0.02 in0.5 mm
12:50 PM 53.6°F12.0°C 49.5°F9.7°C 86% 6.9 mph N11.1 kmh N 10.4 mph16.7 kmh 29.54 in1000.3 mb - 0.00 in0.0 mm 0.02 in0.5 mm
01:00 PM 53.6°F12.0°C 49.2°F9.6°C 85% Calm Calm 3.5 mph5.6 kmh 29.54 in1000.3 mb - 0.00 in0.0 mm 0.02 in0.5 mm
01:10 PM 53.7°F12.1°C 49.3°F9.6°C 85% 2.3 mph NNW3.7 kmh NNW -- 29.54 in1000.3 mb - 0.00 in0.0 mm 0.02 in0.5 mm
01:20 PM 53.7°F12.1°C 49.3°F9.6°C 85% 1.2 mph NNW1.9 kmh NNW 2.3 mph3.7 kmh 29.55 in1000.7 mb - 0.00 in0.0 mm 0.02 in0.5 mm
01:30 PM 53.8°F12.1°C 49.1°F9.5°C 84% 4.6 mph NW7.4 kmh NW 9.2 mph14.8 kmh 29.55 in1000.7 mb - 0.00 in0.0 mm 0.02 in0.5 mm
01:40 PM 54.0°F12.2°C 49.6°F9.8°C 85% 1.2 mph NW1.9 kmh NW 10.4 mph16.7 kmh 29.55 in1000.7 mb - 0.00 in0.0 mm 0.02 in0.5 mm
01:50 PM 54.0°F12.2°C 49.6°F9.8°C 85% Calm Calm -- 29.55 in1000.7 mb - 0.00 in0.0 mm 0.02 in0.5 mm
02:00 PM 54.2°F12.3°C 49.8°F9.9°C 85% 2.3 mph NNW3.7 kmh NNW 5.8 mph9.3 kmh 29.56 in1001.0 mb - 0.00 in0.0 mm 0.02 in0.5 mm
02:10 PM 54.1°F12.3°C 49.7°F9.8°C 85% 5.8 mph NNW9.3 kmh NNW 10.4 mph16.7 kmh 29.57 in1001.4 mb - 0.00 in0.0 mm 0.02 in0.5 mm
02:20 PM 53.9°F12.2°C 49.5°F9.7°C 85% 2.3 mph NNW3.7 kmh NNW 6.9 mph11.1 kmh 29.57 in1001.4 mb - 0.00 in0.0 mm 0.02 in0.5 mm
02:30 PM 53.7°F12.1°C 49.6°F9.8°C 86% 3.5 mph NNW5.6 kmh NNW 11.5 mph18.5 kmh 29.58 in1001.7 mb - 0.00 in0.0 mm 0.02 in0.5 mm
02:40 PM 53.6°F12.0°C 49.5°F9.7°C 86% 2.3 mph NW3.7 kmh NW 4.6 mph7.4 kmh 29.58 in1001.7 mb - 0.00 in0.0 mm 0.02 in0.5 mm
02:50 PM 53.5°F11.9°C 49.1°F9.5°C 85% 2.3 mph NNW3.7 kmh NNW 4.6 mph7.4 kmh 29.59 in1002.0 mb - 0.00 in0.0 mm 0.02 in0.5 mm
03:00 PM 53.5°F11.9°C 49.4°F9.7°C 86% 3.5 mph NW5.6 kmh NW 8.1 mph13.0 kmh 29.59 in1002.0 mb - 0.00 in0.0 mm 0.02 in0.5 mm
03:10 PM 53.4°F11.9°C 49.0°F9.4°C 85% 2.3 mph NW3.7 kmh NW 8.1 mph13.0 kmh 29.59 in1002.0 mb - 0.00 in0.0 mm 0.02 in0.5 mm
03:20 PM 53.4°F11.9°C 49.3°F9.6°C 86% 4.6 mph NW7.4 kmh NW 10.4 mph16.7 kmh 29.59 in1002.0 mb - 0.00 in0.0 mm 0.02 in0.5 mm
03:30 PM 53.3°F11.8°C 49.2°F9.6°C 86% 1.2 mph NNW1.9 kmh NNW 4.6 mph7.4 kmh 29.60 in1002.4 mb - 0.00 in0.0 mm 0.02 in0.5 mm
03:40 PM 53.1°F11.7°C 49.0°F9.4°C 86% 2.3 mph NW3.7 kmh NW 3.5 mph5.6 kmh 29.60 in1002.4 mb - 0.00 in0.0 mm 0.02 in0.5 mm
03:50 PM 52.9°F11.6°C 48.8°F9.3°C 86% 4.6 mph NNW7.4 kmh NNW 10.4 mph16.7 kmh 29.61 in1002.7 mb - 0.00 in0.0 mm 0.02 in0.5 mm
04:00 PM 52.8°F11.6°C 48.7°F9.3°C 86% 1.2 mph NNW1.9 kmh NNW 9.2 mph14.8 kmh 29.61 in1002.7 mb - 0.00 in0.0 mm 0.02 in0.5 mm
04:10 PM 52.6°F11.4°C 48.6°F9.2°C 86% 3.5 mph NNW5.6 kmh NNW 5.8 mph9.3 kmh 29.61 in1002.7 mb - 0.00 in0.0 mm 0.02 in0.5 mm
04:20 PM 52.5°F11.4°C 48.4°F9.1°C 86% 1.2 mph NNW1.9 kmh NNW 9.2 mph14.8 kmh 29.62 in1003.0 mb - 0.00 in0.0 mm 0.02 in0.5 mm
04:30 PM 52.3°F11.3°C 48.2°F9.0°C 86% 1.2 mph N1.9 kmh N 10.4 mph16.7 kmh 29.62 in1003.0 mb - 0.00 in0.0 mm 0.02 in0.5 mm
04:40 PM 52.1°F11.2°C 48.0°F8.9°C 86% 1.2 mph NNW1.9 kmh NNW 1.2 mph1.9 kmh 29.63 in1003.4 mb - 0.00 in0.0 mm 0.02 in0.5 mm
04:50 PM 52.0°F11.1°C 47.9°F8.8°C 86% Calm Calm 8.1 mph13.0 kmh 29.63 in1003.4 mb - 0.00 in0.0 mm 0.02 in0.5 mm
05:00 PM 51.9°F11.1°C 47.8°F8.8°C 86% 1.2 mph NW1.9 kmh NW 6.9 mph11.1 kmh 29.64 in1003.7 mb - 0.00 in0.0 mm 0.02 in0.5 mm
05:10 PM 51.6°F10.9°C 47.5°F8.6°C 86% 1.2 mph NNW1.9 kmh NNW -- 29.65 in1004.1 mb - 0.00 in0.0 mm 0.02 in0.5 mm
05:20 PM 51.4°F10.8°C 47.6°F8.7°C 87% 1.2 mph NW1.9 kmh NW 10.4 mph16.7 kmh 29.65 in1004.1 mb - 0.00 in0.0 mm 0.02 in0.5 mm
05:30 PM 51.2°F10.7°C 47.4°F8.6°C 87% 1.2 mph NW1.9 kmh NW 5.8 mph9.3 kmh 29.66 in1004.4 mb - 0.00 in0.0 mm 0.02 in0.5 mm
05:40 PM 51.0°F10.6°C 47.6°F8.7°C 88% 1.2 mph NW1.9 kmh NW 3.5 mph5.6 kmh 29.66 in1004.4 mb - 0.00 in0.0 mm 0.02 in0.5 mm
05:50 PM 50.9°F10.5°C 47.5°F8.6°C 88% 1.2 mph NNW1.9 kmh NNW -- 29.66 in1004.4 mb - 0.00 in0.0 mm 0.02 in0.5 mm
06:00 PM 50.9°F10.5°C 47.5°F8.6°C 88% Calm Calm 3.5 mph5.6 kmh 29.67 in1004.7 mb - 0.00 in0.0 mm 0.02 in0.5 mm
06:10 PM 50.8°F10.4°C 47.4°F8.6°C 88% 3.5 mph NNW5.6 kmh NNW 6.9 mph11.1 kmh 29.68 in1005.1 mb - 0.00 in0.0 mm 0.02 in0.5 mm
06:20 PM 50.6°F10.3°C 47.2°F8.4°C 88% 5.8 mph NW9.3 kmh NW 12.7 mph20.4 kmh 29.68 in1005.1 mb - 0.00 in0.0 mm 0.02 in0.5 mm
06:30 PM 50.5°F10.3°C 47.4°F8.6°C 89% 1.2 mph N1.9 kmh N 8.1 mph13.0 kmh 29.68 in1005.1 mb - 0.00 in0.0 mm 0.02 in0.5 mm
06:40 PM 50.4°F10.2°C 47.2°F8.4°C 89% 4.6 mph NNW7.4 kmh NNW 10.4 mph16.7 kmh 29.68 in1005.1 mb - 0.00 in0.0 mm 0.02 in0.5 mm
06:50 PM 50.2°F10.1°C 47.1°F8.4°C 89% 2.3 mph NNW3.7 kmh NNW 6.9 mph11.1 kmh 29.69 in1005.4 mb - 0.00 in0.0 mm 0.02 in0.5 mm
07:00 PM 50.0°F10.0°C 46.9°F8.3°C 89% 3.5 mph N5.6 kmh N 8.1 mph13.0 kmh 29.69 in1005.4 mb - 0.00 in0.0 mm 0.02 in0.5 mm
07:10 PM 49.9°F9.9°C 46.8°F8.2°C 89% 4.6 mph NNW7.4 kmh NNW 6.9 mph11.1 kmh 29.69 in1005.4 mb - 0.00 in0.0 mm 0.02 in0.5 mm
07:20 PM 49.7°F9.8°C 46.6°F8.1°C 89% 2.3 mph N3.7 kmh N 10.4 mph16.7 kmh 29.69 in1005.4 mb - 0.00 in0.0 mm 0.02 in0.5 mm
07:30 PM 49.6°F9.8°C 46.2°F7.9°C 88% 4.6 mph N7.4 kmh N 10.4 mph16.7 kmh 29.69 in1005.4 mb - 0.00 in0.0 mm 0.02 in0.5 mm
07:40 PM 49.6°F9.8°C 46.5°F8.1°C 89% 3.5 mph NNW5.6 kmh NNW 6.9 mph11.1 kmh 29.70 in1005.8 mb - 0.00 in0.0 mm 0.02 in0.5 mm
07:50 PM 49.5°F9.7°C 46.4°F8.0°C 89% Calm Calm 2.3 mph3.7 kmh 29.70 in1005.8 mb - 0.00 in0.0 mm 0.02 in0.5 mm
08:10 PM 49.2°F9.6°C 46.1°F7.8°C 89% Calm Calm -- 29.70 in1005.8 mb - 0.00 in0.0 mm 0.02 in0.5 mm
08:20 PM 49.2°F9.6°C 46.1°F7.8°C 89% 3.5 mph N5.6 kmh N 6.9 mph11.1 kmh 29.70 in1005.8 mb - 0.00 in0.0 mm 0.02 in0.5 mm
08:30 PM 49.2°F9.6°C 46.1°F7.8°C 89% 2.3 mph NNW3.7 kmh NNW 8.1 mph13.0 kmh 29.70 in1005.8 mb - 0.00 in0.0 mm 0.02 in0.5 mm
08:40 PM 49.2°F9.6°C 46.1°F7.8°C 89% 1.2 mph NW1.9 kmh NW 3.5 mph5.6 kmh 29.71 in1006.1 mb - 0.00 in0.0 mm 0.02 in0.5 mm
08:50 PM 49.1°F9.5°C 46.0°F7.8°C 89% 2.3 mph NNW3.7 kmh NNW 5.8 mph9.3 kmh 29.72 in1006.4 mb - 0.00 in0.0 mm 0.02 in0.5 mm
09:00 PM 49.0°F9.4°C 45.9°F7.7°C 89% 1.2 mph NNW1.9 kmh NNW 5.8 mph9.3 kmh 29.72 in1006.4 mb - 0.00 in0.0 mm 0.02 in0.5 mm
09:10 PM 48.9°F9.4°C 45.8°F7.7°C 89% 1.2 mph N1.9 kmh N 4.6 mph7.4 kmh 29.72 in1006.4 mb - 0.00 in0.0 mm 0.02 in0.5 mm
09:20 PM 48.7°F9.3°C 45.6°F7.6°C 89% Calm Calm -- 29.73 in1006.8 mb - 0.00 in0.0 mm 0.02 in0.5 mm
09:30 PM 48.7°F9.3°C 45.6°F7.6°C 89% Calm Calm -- 29.73 in1006.8 mb - 0.00 in0.0 mm 0.02 in0.5 mm
09:40 PM 48.6°F9.2°C 45.5°F7.5°C 89% Calm Calm 1.2 mph1.9 kmh 29.73 in1006.8 mb - 0.00 in0.0 mm 0.02 in0.5 mm
09:50 PM 48.5°F9.2°C 45.4°F7.4°C 89% Calm Calm 1.2 mph1.9 kmh 29.73 in1006.8 mb - 0.00 in0.0 mm 0.02 in0.5 mm
10:00 PM 48.5°F9.2°C 45.4°F7.4°C 89% Calm Calm 1.2 mph1.9 kmh 29.73 in1006.8 mb - 0.00 in0.0 mm 0.02 in0.5 mm
10:10 PM 48.5°F9.2°C 45.4°F7.4°C 89% Calm Calm 1.2 mph1.9 kmh 29.73 in1006.8 mb - 0.00 in0.0 mm 0.02 in0.5 mm
10:20 PM 48.5°F9.2°C 45.4°F7.4°C 89% 1.2 mph NNW1.9 kmh NNW 4.6 mph7.4 kmh 29.73 in1006.8 mb - 0.00 in0.0 mm 0.02 in0.5 mm
10:30 PM 48.5°F9.2°C 45.4°F7.4°C 89% Calm Calm 4.6 mph7.4 kmh 29.73 in1006.8 mb - 0.00 in0.0 mm 0.02 in0.5 mm
10:40 PM 48.4°F9.1°C 45.3°F7.4°C 89% Calm Calm -- 29.74 in1007.1 mb - 0.00 in0.0 mm 0.02 in0.5 mm
10:50 PM 48.4°F9.1°C 45.6°F7.6°C 90% Calm Calm -- 29.74 in1007.1 mb - 0.00 in0.0 mm 0.02 in0.5 mm
11:00 PM 48.3°F9.1°C 45.5°F7.5°C 90% Calm Calm -- 29.75 in1007.5 mb - 0.00 in0.0 mm 0.02 in0.5 mm
11:10 PM 48.2°F9.0°C 45.4°F7.4°C 90% Calm Calm -- 29.74 in1007.1 mb - 0.00 in0.0 mm 0.02 in0.5 mm
11:20 PM 48.1°F8.9°C 45.4°F7.4°C 90% Calm Calm -- 29.75 in1007.5 mb - 0.00 in0.0 mm 0.02 in0.5 mm
11:30 PM 48.1°F8.9°C 45.3°F7.4°C 90% Calm Calm -- 29.75 in1007.5 mb - 0.00 in0.0 mm 0.02 in0.5 mm
11:40 PM 48.0°F8.9°C 45.2°F7.3°C 90% Calm Calm -- 29.75 in1007.5 mb - 0.00 in0.0 mm 0.02 in0.5 mm
11:50 PM 47.9°F8.8°C 45.1°F7.3°C 90% Calm Calm -- 29.75 in1007.5 mb - 0.00 in0.0 mm 0.02 in0.5 mm